Главная страница
METAR-TAF:

METAR-TAF

Аэропорты :

Williamsport, Пенсильвания, США

широта: 41-14-30N, долгота: 076-55-15W, высота над уровнем моря: 161 м

Текущие метеонаблюдения

Эта сводка был подготовлена 12 минут назад, в 23:54 UTC
Ветер 3 Узел от юго-западный
Температура 21°C
Влажность 60%
Давление 1017 hPa
Видимость: 16.1 км
ясное небо

METAR: KIPT 232354Z 22003KT 10SM CLR 21/13 A3002 RMK AO2 SLP164 T02110133 10272 20211 53004

Время: 20:06 (00:06 UTC)

Прогноз

Эта сводка был подготовлена 17 минут назад, в 23:49 UTC
Прогноз действительный с 24-го 00 UTC до 24-го 24 UTC
Ветер 5 Узел от северо-западный
Видимость: 10 км
ясное небо
С 24-го 0400 UTC
Ветер Узел от северный
Видимость: 10 км
ясное небо
С 24-го 1330 UTC
Ветер 5 Узел от западный
Видимость: 10 км
ясное небо

TAF: KIPT 232349Z 2400/2424 32005KT P6SM SKC FM240400 00000KT P6SM SKC FM241330 28005KT P6SM SKC

Метеонаблюдения и прогнозы для более 4000 аэропортов (сводки METAR и TAF).

Имеющиеся станции представлены на карте желтыми и красными точками.

Чтобы увидеть название станции, наведите на нее мышь.

Затем щелкните, чтобы увидеть метеонаблюдения и метеопрогнозы.

Управление картой: чтобы увеличить масштаб, щелкните зеленые кнопки с черным крестиком; чтобы уменьшить масштаб, щелкните зеленую кнопку с тире; для просмотра соседних карт щелкайте зеленые стрелки.


METAR-TAF: